RYR85RT EGSS-LEMD
Flight info
| Callsign | RYR85RT |
|---|---|
| Flight time | N/A |
| Altitude | 32000 |
| Route | NUGBO M183 SILVA Q41 SAM M195 MARUK N621 LELNA DCT NOVAN DCT DELOG N864 NONTU |
| Aircraft | B738/M-SDE3FGILRWY/SB1 |
Departure
| Time | 2026-05-07 17:26 |
|---|---|
| Airport | London Stansted Airport (EGSS) |
Arrival
| Time | N/A |
|---|---|
| Airport | Adolfo Suárez Madrid–Barajas Airport (LEMD) |
| Time | Latitude | Longitude | Altitude | Speed | Heading |
|---|---|---|---|---|---|
| 2026-05-07 16:50 | 51.88896 | 0.25309 | 352 ft | 0 kts | 43° |
| 2026-05-07 17:16 | 51.88890 | 0.25301 | 361 ft | 4 kts | 43° |
| 2026-05-07 17:16 | 51.88874 | 0.25276 | 360 ft | 2 kts | 43° |
| 2026-05-07 17:16 | 51.88854 | 0.25253 | 360 ft | 4 kts | 11° |
| 2026-05-07 17:16 | 51.88832 | 0.25259 | 356 ft | 3 kts | 314° |
| 2026-05-07 17:17 | 51.88816 | 0.25287 | 361 ft | 1 kts | 313° |
| 2026-05-07 17:17 | 51.88816 | 0.25288 | 361 ft | 0 kts | 313° |
| 2026-05-07 17:19 | 51.88817 | 0.25286 | 361 ft | 1 kts | 314° |
| 2026-05-07 17:20 | 51.88832 | 0.25261 | 356 ft | 6 kts | 314° |
| 2026-05-07 17:20 | 51.88866 | 0.25201 | 359 ft | 9 kts | 314° |
| 2026-05-07 17:20 | 51.88911 | 0.25123 | 351 ft | 12 kts | 313° |
| 2026-05-07 17:20 | 51.88967 | 0.24999 | 356 ft | 14 kts | 270° |
| 2026-05-07 17:21 | 51.88910 | 0.24878 | 354 ft | 14 kts | 225° |
| 2026-05-07 17:21 | 51.88869 | 0.24816 | 356 ft | 5 kts | 223° |
| 2026-05-07 17:21 | 51.88844 | 0.24777 | 355 ft | 6 kts | 222° |
| 2026-05-07 17:21 | 51.88801 | 0.24714 | 354 ft | 12 kts | 221° |
| 2026-05-07 17:22 | 51.88719 | 0.24592 | 351 ft | 21 kts | 223° |
| 2026-05-07 17:22 | 51.88590 | 0.24398 | 345 ft | 28 kts | 223° |
| 2026-05-07 17:22 | 51.88448 | 0.24185 | 351 ft | 28 kts | 223° |
| 2026-05-07 17:22 | 51.88312 | 0.23980 | 348 ft | 26 kts | 223° |
| 2026-05-07 17:23 | 51.88184 | 0.23789 | 336 ft | 25 kts | 223° |
| 2026-05-07 17:23 | 51.88059 | 0.23602 | 338 ft | 24 kts | 223° |
| 2026-05-07 17:23 | 51.87942 | 0.23426 | 338 ft | 23 kts | 223° |
| 2026-05-07 17:23 | 51.87829 | 0.23255 | 339 ft | 22 kts | 222° |
| 2026-05-07 17:24 | 51.87732 | 0.23100 | 336 ft | 16 kts | 248° |
| 2026-05-07 17:24 | 51.87784 | 0.22961 | 337 ft | 15 kts | 303° |
| 2026-05-07 17:24 | 51.87741 | 0.22827 | 334 ft | 15 kts | 223° |
| 2026-05-07 17:24 | 51.87643 | 0.22680 | 335 ft | 23 kts | 221° |
| 2026-05-07 17:25 | 51.87520 | 0.22483 | 327 ft | 21 kts | 245° |
| 2026-05-07 17:25 | 51.87569 | 0.22337 | 324 ft | 16 kts | 319° |
| 2026-05-07 17:25 | 51.87670 | 0.22268 | 325 ft | 16 kts | 7° |
| 2026-05-07 17:25 | 51.87762 | 0.22373 | 329 ft | 21 kts | 43° |
| 2026-05-07 17:26 | 51.88047 | 0.22801 | 330 ft | 92 kts | 43° |
| 2026-05-07 17:26 | 51.88671 | 0.23734 | 340 ft | 151 kts | 42° |
| 2026-05-07 17:26 | 51.89513 | 0.24983 | 776 ft | 170 kts | 46° |
| 2026-05-07 17:26 | 51.90396 | 0.26333 | 1536 ft | 179 kts | 46° |
| 2026-05-07 17:27 | 51.91318 | 0.27741 | 2296 ft | 186 kts | 47° |
| 2026-05-07 17:27 | 51.92311 | 0.29155 | 3087 ft | 194 kts | 37° |
| 2026-05-07 17:27 | 51.93644 | 0.30022 | 3448 ft | 223 kts | 8° |
| 2026-05-07 17:27 | 51.95240 | 0.29727 | 3735 ft | 243 kts | 336° |
| 2026-05-07 17:28 | 51.96557 | 0.28037 | 4348 ft | 247 kts | 304° |
| 2026-05-07 17:28 | 51.97180 | 0.25393 | 4851 ft | 257 kts | 280° |
| 2026-05-07 17:28 | 51.97461 | 0.22498 | 5097 ft | 261 kts | 276° |
| 2026-05-07 17:28 | 51.97588 | 0.19581 | 5903 ft | 262 kts | 269° |
| 2026-05-07 17:29 | 51.97562 | 0.16667 | 6823 ft | 263 kts | 268° |
| 2026-05-07 17:29 | 51.97511 | 0.13661 | 7672 ft | 266 kts | 267° |
| 2026-05-07 17:29 | 51.97464 | 0.10646 | 8541 ft | 270 kts | 268° |
| 2026-05-07 17:29 | 51.97425 | 0.07558 | 9352 ft | 275 kts | 267° |
| 2026-05-07 17:30 | 51.97394 | 0.04428 | 10129 ft | 282 kts | 268° |
| 2026-05-07 17:30 | 51.97367 | 0.01194 | 10694 ft | 294 kts | 268° |
| 2026-05-07 17:30 | 51.97341 | -0.02170 | 11307 ft | 302 kts | 268° |
| 2026-05-07 17:30 | 51.97315 | -0.05600 | 12077 ft | 306 kts | 268° |
| 2026-05-07 17:31 | 51.97157 | -0.09041 | 12869 ft | 308 kts | 259° |
| 2026-05-07 17:31 | 51.96751 | -0.12466 | 13657 ft | 311 kts | 256° |
| 2026-05-07 17:31 | 51.96273 | -0.15906 | 14386 ft | 314 kts | 255° |
| 2026-05-07 17:31 | 51.95784 | -0.19365 | 15111 ft | 316 kts | 256° |
| 2026-05-07 17:32 | 51.95297 | -0.22850 | 15845 ft | 318 kts | 256° |
| 2026-05-07 17:32 | 51.94815 | -0.26367 | 16558 ft | 321 kts | 256° |
| 2026-05-07 17:32 | 51.94334 | -0.29920 | 17283 ft | 324 kts | 257° |
| 2026-05-07 17:32 | 51.94016 | -0.32291 | 17759 ft | 326 kts | 257° |
| 2026-05-07 17:33 | 51.93372 | -0.37117 | 18659 ft | 329 kts | 257° |
| 2026-05-07 17:33 | 51.92888 | -0.40758 | 19279 ft | 332 kts | 257° |
| 2026-05-07 17:33 | 51.92401 | -0.44422 | 19915 ft | 334 kts | 257° |
| 2026-05-07 17:33 | 51.91909 | -0.48117 | 20541 ft | 337 kts | 257° |
| 2026-05-07 17:34 | 51.91414 | -0.51832 | 21162 ft | 339 kts | 257° |
| 2026-05-07 17:34 | 51.90912 | -0.55584 | 21767 ft | 342 kts | 257° |
| 2026-05-07 17:34 | 51.90406 | -0.59356 | 22360 ft | 344 kts | 257° |
| 2026-05-07 17:34 | 51.89894 | -0.63162 | 22953 ft | 347 kts | 257° |
| 2026-05-07 17:35 | 51.89378 | -0.66992 | 23527 ft | 350 kts | 257° |
| 2026-05-07 17:35 | 51.88857 | -0.70844 | 24032 ft | 352 kts | 257° |
| 2026-05-07 17:35 | 51.88331 | -0.74730 | 24516 ft | 354 kts | 257° |
| 2026-05-07 17:35 | 51.87800 | -0.78630 | 24990 ft | 356 kts | 257° |
| 2026-05-07 17:36 | 51.87264 | -0.82562 | 25462 ft | 359 kts | 257° |
| 2026-05-07 17:36 | 51.86724 | -0.86527 | 25916 ft | 361 kts | 257° |
| 2026-05-07 17:36 | 51.86179 | -0.90508 | 26377 ft | 364 kts | 257° |
| 2026-05-07 17:36 | 51.85518 | -0.94464 | 26795 ft | 366 kts | 246° |
| 2026-05-07 17:37 | 51.84117 | -0.97891 | 27206 ft | 369 kts | 226° |
| 2026-05-07 17:37 | 51.82085 | -1.00449 | 27686 ft | 373 kts | 211° |
| 2026-05-07 17:37 | 51.79647 | -1.01953 | 28069 ft | 380 kts | 194° |
| 2026-05-07 17:37 | 51.77029 | -1.02686 | 28511 ft | 383 kts | 192° |
| 2026-05-07 17:38 | 51.74383 | -1.03318 | 28893 ft | 386 kts | 191° |
| 2026-05-07 17:38 | 51.71711 | -1.03944 | 29271 ft | 389 kts | 191° |
| 2026-05-07 17:38 | 51.69023 | -1.04598 | 29663 ft | 391 kts | 192° |
| 2026-05-07 17:38 | 51.66328 | -1.05281 | 30052 ft | 394 kts | 192° |
| 2026-05-07 17:39 | 51.63618 | -1.05982 | 30362 ft | 396 kts | 192° |
| 2026-05-07 17:39 | 51.60901 | -1.06735 | 30683 ft | 397 kts | 195° |
| 2026-05-07 17:39 | 51.58214 | -1.07798 | 31002 ft | 397 kts | 198° |